sensor_id;sensor_type;location;lat;lon;timestamp;temperature;humidity
12839;DHT22;6486;51.034;5.262;2023-02-13T00:00:13;6.60;78.80
12839;DHT22;6486;51.034;5.262;2023-02-13T00:02:39;6.60;78.70
12839;DHT22;6486;51.034;5.262;2023-02-13T00:05:05;6.60;78.80
12839;DHT22;6486;51.034;5.262;2023-02-13T00:07:30;6.50;78.50
12839;DHT22;6486;51.034;5.262;2023-02-13T00:09:56;6.50;78.50
12839;DHT22;6486;51.034;5.262;2023-02-13T00:12:22;6.50;78.60
12839;DHT22;6486;51.034;5.262;2023-02-13T00:14:47;6.40;78.40
12839;DHT22;6486;51.034;5.262;2023-02-13T00:17:13;6.40;78.40
12839;DHT22;6486;51.034;5.262;2023-02-13T00:19:39;6.40;78.50
12839;DHT22;6486;51.034;5.262;2023-02-13T00:22:04;6.30;78.40
12839;DHT22;6486;51.034;5.262;2023-02-13T00:24:30;6.30;78.40
12839;DHT22;6486;51.034;5.262;2023-02-13T00:26:56;6.30;79.00
12839;DHT22;6486;51.034;5.262;2023-02-13T00:29:21;6.20;78.30
12839;DHT22;6486;51.034;5.262;2023-02-13T00:31:47;6.20;78.30
12839;DHT22;6486;51.034;5.262;2023-02-13T00:34:12;6.20;78.30
12839;DHT22;6486;51.034;5.262;2023-02-13T00:36:38;6.10;78.20
12839;DHT22;6486;51.034;5.262;2023-02-13T00:39:04;6.10;78.80
12839;DHT22;6486;51.034;5.262;2023-02-13T00:41:29;6.10;78.20
12839;DHT22;6486;51.034;5.262;2023-02-13T00:43:55;6.00;78.10
12839;DHT22;6486;51.034;5.262;2023-02-13T00:46:21;6.00;78.10
12839;DHT22;6486;51.034;5.262;2023-02-13T00:48:46;6.00;78.10
12839;DHT22;6486;51.034;5.262;2023-02-13T00:51:12;5.90;78.00
12839;DHT22;6486;51.034;5.262;2023-02-13T00:53:38;5.90;78.10
12839;DHT22;6486;51.034;5.262;2023-02-13T00:56:05;5.90;78.10
12839;DHT22;6486;51.034;5.262;2023-02-13T00:58:31;5.90;78.10
12839;DHT22;6486;51.034;5.262;2023-02-13T01:00:56;5.90;78.10
12839;DHT22;6486;51.034;5.262;2023-02-13T01:03:22;5.90;78.10
12839;DHT22;6486;51.034;5.262;2023-02-13T01:05:48;5.90;78.10
12839;DHT22;6486;51.034;5.262;2023-02-13T01:08:16;5.90;78.10
12839;DHT22;6486;51.034;5.262;2023-02-13T01:10:44;5.90;78.10
12839;DHT22;6486;51.034;5.262;2023-02-13T01:13:10;5.80;78.00
12839;DHT22;6486;51.034;5.262;2023-02-13T01:15:36;5.80;77.80
12839;DHT22;6486;51.034;5.262;2023-02-13T01:18:01;5.80;77.70
12839;DHT22;6486;51.034;5.262;2023-02-13T01:20:28;5.70;77.60
12839;DHT22;6486;51.034;5.262;2023-02-13T01:22:54;5.70;77.60
12839;DHT22;6486;51.034;5.262;2023-02-13T01:25:20;5.70;77.60
12839;DHT22;6486;51.034;5.262;2023-02-13T01:27:46;5.70;77.50
12839;DHT22;6486;51.034;5.262;2023-02-13T01:30:14;5.60;77.50
12839;DHT22;6486;51.034;5.262;2023-02-13T01:32:41;5.60;77.50
12839;DHT22;6486;51.034;5.262;2023-02-13T01:35:07;5.60;77.40
12839;DHT22;6486;51.034;5.262;2023-02-13T01:37:33;5.50;77.30
12839;DHT22;6486;51.034;5.262;2023-02-13T01:39:59;5.50;77.30
12839;DHT22;6486;51.034;5.262;2023-02-13T01:42:28;5.50;77.50
12839;DHT22;6486;51.034;5.262;2023-02-13T01:44:56;5.50;77.60
12839;DHT22;6486;51.034;5.262;2023-02-13T01:53:01;5.40;77.50
12839;DHT22;6486;51.034;5.262;2023-02-13T01:55:30;5.30;77.40
12839;DHT22;6486;51.034;5.262;2023-02-13T01:58:18;5.30;77.40
12839;DHT22;6486;51.034;5.262;2023-02-13T02:00:45;5.30;77.50
12839;DHT22;6486;51.034;5.262;2023-02-13T02:03:26;5.30;77.40
12839;DHT22;6486;51.034;5.262;2023-02-13T02:05:54;5.30;77.30
12839;DHT22;6486;51.034;5.262;2023-02-13T02:08:21;5.20;77.10
12839;DHT22;6486;51.034;5.262;2023-02-13T02:10:48;5.20;77.80
12839;DHT22;6486;51.034;5.262;2023-02-13T02:13:16;5.20;77.10
12839;DHT22;6486;51.034;5.262;2023-02-13T02:15:47;5.10;77.00
12839;DHT22;6486;51.034;5.262;2023-02-13T02:18:18;5.10;76.90
12839;DHT22;6486;51.034;5.262;2023-02-13T02:34:09;4.90;77.00
12839;DHT22;6486;51.034;5.262;2023-02-13T02:36:51;4.90;77.00
12839;DHT22;6486;51.034;5.262;2023-02-13T02:39:26;4.80;77.00
12839;DHT22;6486;51.034;5.262;2023-02-13T02:42:16;4.80;77.00
12839;DHT22;6486;51.034;5.262;2023-02-13T02:44:58;4.80;77.00
12839;DHT22;6486;51.034;5.262;2023-02-13T02:47:53;4.80;77.00
12839;DHT22;6486;51.034;5.262;2023-02-13T02:50:42;4.80;76.90
12839;DHT22;6486;51.034;5.262;2023-02-13T02:53:50;4.70;76.70
12839;DHT22;6486;51.034;5.262;2023-02-13T02:56:22;4.70;76.70
12839;DHT22;6486;51.034;5.262;2023-02-13T02:58:54;4.70;76.90
12839;DHT22;6486;51.034;5.262;2023-02-13T03:01:40;4.60;76.90
12839;DHT22;6486;51.034;5.262;2023-02-13T03:04:45;4.60;76.90
12839;DHT22;6486;51.034;5.262;2023-02-13T03:07:31;4.60;77.00
12839;DHT22;6486;51.034;5.262;2023-02-13T03:10:00;4.50;76.90
12839;DHT22;6486;51.034;5.262;2023-02-13T03:12:55;4.50;77.00
12839;DHT22;6486;51.034;5.262;2023-02-13T03:15:43;4.50;77.00
12839;DHT22;6486;51.034;5.262;2023-02-13T03:18:43;4.50;77.00
12839;DHT22;6486;51.034;5.262;2023-02-13T03:42:46;4.30;76.80
12839;DHT22;6486;51.034;5.262;2023-02-13T03:45:26;4.30;76.90
12839;DHT22;6486;51.034;5.262;2023-02-13T03:48:13;4.30;76.90
12839;DHT22;6486;51.034;5.262;2023-02-13T03:51:01;4.30;77.00
12839;DHT22;6486;51.034;5.262;2023-02-13T03:53:30;4.30;77.00
12839;DHT22;6486;51.034;5.262;2023-02-13T03:55:58;4.30;76.90
12839;DHT22;6486;51.034;5.262;2023-02-13T03:58:47;4.20;76.90
12839;DHT22;6486;51.034;5.262;2023-02-13T04:01:34;4.20;77.00
12839;DHT22;6486;51.034;5.262;2023-02-13T04:05:05;4.20;77.10
12839;DHT22;6486;51.034;5.262;2023-02-13T04:07:09;4.20;77.10
12839;DHT22;6486;51.034;5.262;2023-02-13T04:09:39;4.20;77.00
12839;DHT22;6486;51.034;5.262;2023-02-13T04:12:12;4.20;77.00
12839;DHT22;6486;51.034;5.262;2023-02-13T04:17:40;4.20;77.00
12839;DHT22;6486;51.034;5.262;2023-02-13T04:20:07;4.20;77.10
12839;DHT22;6486;51.034;5.262;2023-02-13T04:22:33;4.20;77.10
12839;DHT22;6486;51.034;5.262;2023-02-13T04:24:59;4.10;77.00
12839;DHT22;6486;51.034;5.262;2023-02-13T04:27:27;4.10;77.00
12839;DHT22;6486;51.034;5.262;2023-02-13T04:29:52;4.10;77.20
12839;DHT22;6486;51.034;5.262;2023-02-13T04:32:18;4.10;77.30
12839;DHT22;6486;51.034;5.262;2023-02-13T04:34:43;4.10;77.30
12839;DHT22;6486;51.034;5.262;2023-02-13T04:37:09;4.00;77.20
12839;DHT22;6486;51.034;5.262;2023-02-13T04:39:35;4.00;77.20
12839;DHT22;6486;51.034;5.262;2023-02-13T04:42:00;4.00;77.30
12839;DHT22;6486;51.034;5.262;2023-02-13T04:44:26;4.00;77.30
12839;DHT22;6486;51.034;5.262;2023-02-13T04:46:51;4.00;77.20
12839;DHT22;6486;51.034;5.262;2023-02-13T04:49:17;4.00;77.20
12839;DHT22;6486;51.034;5.262;2023-02-13T04:51:42;4.00;77.20
12839;DHT22;6486;51.034;5.262;2023-02-13T04:54:09;4.00;77.20
12839;DHT22;6486;51.034;5.262;2023-02-13T04:56:35;4.00;77.30
12839;DHT22;6486;51.034;5.262;2023-02-13T04:59:00;4.00;77.30
12839;DHT22;6486;51.034;5.262;2023-02-13T05:01:26;4.00;77.30
12839;DHT22;6486;51.034;5.262;2023-02-13T05:03:51;4.00;77.30
12839;DHT22;6486;51.034;5.262;2023-02-13T05:06:17;4.00;77.30
12839;DHT22;6486;51.034;5.262;2023-02-13T05:08:43;4.00;77.30
12839;DHT22;6486;51.034;5.262;2023-02-13T05:11:08;3.90;77.30
12839;DHT22;6486;51.034;5.262;2023-02-13T05:13:34;3.90;77.30
12839;DHT22;6486;51.034;5.262;2023-02-13T05:15:59;4.00;77.30
12839;DHT22;6486;51.034;5.262;2023-02-13T05:18:25;3.90;77.20
12839;DHT22;6486;51.034;5.262;2023-02-13T05:20:51;3.90;77.20
12839;DHT22;6486;51.034;5.262;2023-02-13T05:23:35;3.90;77.20
12839;DHT22;6486;51.034;5.262;2023-02-13T05:26:01;3.80;77.10
12839;DHT22;6486;51.034;5.262;2023-02-13T05:28:27;3.80;77.10
12839;DHT22;6486;51.034;5.262;2023-02-13T05:31:11;3.80;77.10
12839;DHT22;6486;51.034;5.262;2023-02-13T05:33:37;3.80;77.10
12839;DHT22;6486;51.034;5.262;2023-02-13T05:36:02;3.70;77.10
12839;DHT22;6486;51.034;5.262;2023-02-13T05:38:28;3.70;77.10
12839;DHT22;6486;51.034;5.262;2023-02-13T05:40:53;3.70;77.10
12839;DHT22;6486;51.034;5.262;2023-02-13T05:43:19;3.60;77.10
12839;DHT22;6486;51.034;5.262;2023-02-13T05:45:45;3.60;77.10
12839;DHT22;6486;51.034;5.262;2023-02-13T05:48:10;3.60;77.20
12839;DHT22;6486;51.034;5.262;2023-02-13T05:50:36;3.60;77.20
12839;DHT22;6486;51.034;5.262;2023-02-13T05:53:02;3.60;77.20
12839;DHT22;6486;51.034;5.262;2023-02-13T05:55:28;3.60;77.20
12839;DHT22;6486;51.034;5.262;2023-02-13T05:57:57;3.60;77.20
12839;DHT22;6486;51.034;5.262;2023-02-13T06:00:23;3.60;77.20
12839;DHT22;6486;51.034;5.262;2023-02-13T06:02:49;3.60;77.30
12839;DHT22;6486;51.034;5.262;2023-02-13T06:05:15;3.50;77.10
12839;DHT22;6486;51.034;5.262;2023-02-13T06:07:40;3.50;77.10
12839;DHT22;6486;51.034;5.262;2023-02-13T06:10:06;3.50;77.20
12839;DHT22;6486;51.034;5.262;2023-02-13T06:12:32;3.50;77.20
12839;DHT22;6486;51.034;5.262;2023-02-13T06:14:57;3.50;77.30
12839;DHT22;6486;51.034;5.262;2023-02-13T06:17:23;3.40;77.20
12839;DHT22;6486;51.034;5.262;2023-02-13T06:19:48;3.40;77.30
12839;DHT22;6486;51.034;5.262;2023-02-13T06:22:14;3.40;77.40
12839;DHT22;6486;51.034;5.262;2023-02-13T06:24:39;3.30;77.40
12839;DHT22;6486;51.034;5.262;2023-02-13T06:27:05;3.30;77.40
12839;DHT22;6486;51.034;5.262;2023-02-13T06:29:31;3.30;77.40
12839;DHT22;6486;51.034;5.262;2023-02-13T06:31:57;3.30;77.30
12839;DHT22;6486;51.034;5.262;2023-02-13T06:34:23;3.40;77.30
12839;DHT22;6486;51.034;5.262;2023-02-13T06:36:48;3.30;77.20
12839;DHT22;6486;51.034;5.262;2023-02-13T06:39:15;3.30;77.10
12839;DHT22;6486;51.034;5.262;2023-02-13T06:41:40;3.30;77.40
12839;DHT22;6486;51.034;5.262;2023-02-13T06:44:06;3.30;77.00
12839;DHT22;6486;51.034;5.262;2023-02-13T06:46:32;3.30;77.00
12839;DHT22;6486;51.034;5.262;2023-02-13T06:48:58;3.30;77.00
12839;DHT22;6486;51.034;5.262;2023-02-13T06:51:23;3.30;77.00
12839;DHT22;6486;51.034;5.262;2023-02-13T06:53:49;3.30;77.00
12839;DHT22;6486;51.034;5.262;2023-02-13T06:56:14;3.30;77.00
12839;DHT22;6486;51.034;5.262;2023-02-13T06:58:40;3.30;77.00
12839;DHT22;6486;51.034;5.262;2023-02-13T07:01:06;3.30;77.00
12839;DHT22;6486;51.034;5.262;2023-02-13T07:03:32;3.30;77.00
12839;DHT22;6486;51.034;5.262;2023-02-13T07:05:58;3.30;77.00
12839;DHT22;6486;51.034;5.262;2023-02-13T07:08:23;3.30;77.00
12839;DHT22;6486;51.034;5.262;2023-02-13T07:10:49;3.30;77.00
12839;DHT22;6486;51.034;5.262;2023-02-13T07:13:15;3.30;77.00
12839;DHT22;6486;51.034;5.262;2023-02-13T07:15:40;3.30;77.00
12839;DHT22;6486;51.034;5.262;2023-02-13T07:18:06;3.30;76.90
12839;DHT22;6486;51.034;5.262;2023-02-13T07:20:33;3.30;76.90
12839;DHT22;6486;51.034;5.262;2023-02-13T07:22:59;3.30;77.00
12839;DHT22;6486;51.034;5.262;2023-02-13T07:25:25;3.30;77.10
12839;DHT22;6486;51.034;5.262;2023-02-13T07:27:51;3.30;77.00
12839;DHT22;6486;51.034;5.262;2023-02-13T07:30:17;3.30;77.00
12839;DHT22;6486;51.034;5.262;2023-02-13T07:32:42;3.30;77.00
12839;DHT22;6486;51.034;5.262;2023-02-13T07:35:08;3.30;77.10
12839;DHT22;6486;51.034;5.262;2023-02-13T07:37:33;3.30;77.20
12839;DHT22;6486;51.034;5.262;2023-02-13T07:39:59;3.30;77.20
12839;DHT22;6486;51.034;5.262;2023-02-13T07:42:25;3.30;77.20
12839;DHT22;6486;51.034;5.262;2023-02-13T07:44:50;3.30;77.10
12839;DHT22;6486;51.034;5.262;2023-02-13T07:47:16;3.30;77.00
12839;DHT22;6486;51.034;5.262;2023-02-13T07:49:41;3.40;77.10
12839;DHT22;6486;51.034;5.262;2023-02-13T07:52:08;3.40;77.00
12839;DHT22;6486;51.034;5.262;2023-02-13T07:54:33;3.40;77.00
12839;DHT22;6486;51.034;5.262;2023-02-13T07:57:00;3.40;76.90
12839;DHT22;6486;51.034;5.262;2023-02-13T07:59:26;3.50;77.00
12839;DHT22;6486;51.034;5.262;2023-02-13T08:01:52;3.50;77.10
12839;DHT22;6486;51.034;5.262;2023-02-13T08:04:17;3.50;77.10
12839;DHT22;6486;51.034;5.262;2023-02-13T08:06:43;3.60;77.20
12839;DHT22;6486;51.034;5.262;2023-02-13T08:09:17;3.60;77.10
12839;DHT22;6486;51.034;5.262;2023-02-13T08:12:02;3.70;77.30
12839;DHT22;6486;51.034;5.262;2023-02-13T08:14:29;3.70;77.30
12839;DHT22;6486;51.034;5.262;2023-02-13T08:16:54;3.80;77.40
12839;DHT22;6486;51.034;5.262;2023-02-13T08:19:20;3.80;77.20
12839;DHT22;6486;51.034;5.262;2023-02-13T08:21:46;3.90;77.20
12839;DHT22;6486;51.034;5.262;2023-02-13T08:24:12;4.00;77.30
12839;DHT22;6486;51.034;5.262;2023-02-13T08:26:38;4.00;77.10
12839;DHT22;6486;51.034;5.262;2023-02-13T08:29:05;4.10;77.10
12839;DHT22;6486;51.034;5.262;2023-02-13T08:31:31;4.20;77.20
12839;DHT22;6486;51.034;5.262;2023-02-13T08:33:56;4.20;77.10
12839;DHT22;6486;51.034;5.262;2023-02-13T08:36:23;4.30;77.10
12839;DHT22;6486;51.034;5.262;2023-02-13T08:38:49;4.40;77.10
12839;DHT22;6486;51.034;5.262;2023-02-13T08:41:14;4.40;77.10
12839;DHT22;6486;51.034;5.262;2023-02-13T08:43:42;4.50;77.10
12839;DHT22;6486;51.034;5.262;2023-02-13T08:46:08;4.60;77.30
12839;DHT22;6486;51.034;5.262;2023-02-13T08:48:34;4.60;77.20
12839;DHT22;6486;51.034;5.262;2023-02-13T08:50:59;4.70;77.20
12839;DHT22;6486;51.034;5.262;2023-02-13T08:53:25;4.80;77.30
12839;DHT22;6486;51.034;5.262;2023-02-13T08:55:55;4.90;77.30
12839;DHT22;6486;51.034;5.262;2023-02-13T08:58:21;5.00;77.40
12839;DHT22;6486;51.034;5.262;2023-02-13T09:00:47;5.00;77.30
12839;DHT22;6486;51.034;5.262;2023-02-13T09:03:13;5.10;77.30
12839;DHT22;6486;51.034;5.262;2023-02-13T09:05:39;5.20;77.50
12839;DHT22;6486;51.034;5.262;2023-02-13T09:08:05;5.30;77.50
12839;DHT22;6486;51.034;5.262;2023-02-13T09:10:32;5.40;77.60
12839;DHT22;6486;51.034;5.262;2023-02-13T09:12:57;5.50;78.20
12839;DHT22;6486;51.034;5.262;2023-02-13T09:15:23;5.70;77.60
12839;DHT22;6486;51.034;5.262;2023-02-13T09:17:49;5.80;77.70
12839;DHT22;6486;51.034;5.262;2023-02-13T09:20:15;5.90;77.70
12839;DHT22;6486;51.034;5.262;2023-02-13T09:22:40;6.00;78.40
12839;DHT22;6486;51.034;5.262;2023-02-13T09:25:07;6.10;77.80
12839;DHT22;6486;51.034;5.262;2023-02-13T09:27:33;6.20;77.80
12839;DHT22;6486;51.034;5.262;2023-02-13T09:30:00;6.30;77.90
12839;DHT22;6486;51.034;5.262;2023-02-13T09:32:26;6.40;78.00
12839;DHT22;6486;51.034;5.262;2023-02-13T09:34:52;6.60;78.20
12839;DHT22;6486;51.034;5.262;2023-02-13T09:37:17;6.70;78.10
12839;DHT22;6486;51.034;5.262;2023-02-13T09:39:43;6.80;78.20
12839;DHT22;6486;51.034;5.262;2023-02-13T09:42:28;6.90;78.80
12839;DHT22;6486;51.034;5.262;2023-02-13T09:44:59;7.00;78.90
12839;DHT22;6486;51.034;5.262;2023-02-13T09:47:29;7.20;78.30
12839;DHT22;6486;51.034;5.262;2023-02-13T09:52:45;7.40;78.50
12839;DHT22;6486;51.034;5.262;2023-02-13T09:55:20;7.50;78.60
12839;DHT22;6486;51.034;5.262;2023-02-13T09:57:59;7.60;78.70
12839;DHT22;6486;51.034;5.262;2023-02-13T10:00:40;7.70;78.60
12839;DHT22;6486;51.034;5.262;2023-02-13T10:12:04;8.20;78.70
12839;DHT22;6486;51.034;5.262;2023-02-13T10:17:12;8.40;78.60
12839;DHT22;6486;51.034;5.262;2023-02-13T10:19:45;8.50;78.50
12839;DHT22;6486;51.034;5.262;2023-02-13T10:22:16;8.60;78.60
12839;DHT22;6486;51.034;5.262;2023-02-13T10:27:33;8.80;78.70
12839;DHT22;6486;51.034;5.262;2023-02-13T10:30:07;8.90;78.60
12839;DHT22;6486;51.034;5.262;2023-02-13T10:35:23;9.10;78.60
12839;DHT22;6486;51.034;5.262;2023-02-13T10:37:52;9.20;78.50
12839;DHT22;6486;51.034;5.262;2023-02-13T10:40:19;9.20;78.40
12839;DHT22;6486;51.034;5.262;2023-02-13T10:42:52;9.30;78.50
12839;DHT22;6486;51.034;5.262;2023-02-13T10:51:18;9.70;78.30
12839;DHT22;6486;51.034;5.262;2023-02-13T10:54:31;9.70;78.10
12839;DHT22;6486;51.034;5.262;2023-02-13T11:02:28;10.10;77.00
12839;DHT22;6486;51.034;5.262;2023-02-13T11:04:58;10.20;77.00
12839;DHT22;6486;51.034;5.262;2023-02-13T11:07:25;10.40;77.10
12839;DHT22;6486;51.034;5.262;2023-02-13T11:09:54;10.40;77.00
12839;DHT22;6486;51.034;5.262;2023-02-13T11:12:31;10.60;77.20
12839;DHT22;6486;51.034;5.262;2023-02-13T11:15:02;10.70;77.10
12839;DHT22;6486;51.034;5.262;2023-02-13T11:17:31;10.80;76.90
12839;DHT22;6486;51.034;5.262;2023-02-13T11:20:03;10.90;76.90
12839;DHT22;6486;51.034;5.262;2023-02-13T11:22:35;11.00;76.90
12839;DHT22;6486;51.034;5.262;2023-02-13T11:25:06;11.10;76.80
12839;DHT22;6486;51.034;5.262;2023-02-13T11:27:34;11.20;76.60
12839;DHT22;6486;51.034;5.262;2023-02-13T11:31:35;11.40;76.00
12839;DHT22;6486;51.034;5.262;2023-02-13T11:34:26;11.50;76.30
12839;DHT22;6486;51.034;5.262;2023-02-13T11:39:42;11.70;75.80
12839;DHT22;6486;51.034;5.262;2023-02-13T11:42:25;11.80;75.80
12839;DHT22;6486;51.034;5.262;2023-02-13T11:44:53;11.90;75.70
12839;DHT22;6486;51.034;5.262;2023-02-13T11:47:40;11.90;75.70
12839;DHT22;6486;51.034;5.262;2023-02-13T11:50:31;12.00;75.70
12839;DHT22;6486;51.034;5.262;2023-02-13T11:53:02;12.00;75.40
12839;DHT22;6486;51.034;5.262;2023-02-13T11:55:39;12.10;75.30
12839;DHT22;6486;51.034;5.262;2023-02-13T12:00:39;12.30;74.70
12839;DHT22;6486;51.034;5.262;2023-02-13T12:06:11;12.40;74.40
12839;DHT22;6486;51.034;5.262;2023-02-13T12:08:39;12.50;74.30
12839;DHT22;6486;51.034;5.262;2023-02-13T12:13:51;12.70;74.00
12839;DHT22;6486;51.034;5.262;2023-02-13T12:18:51;12.90;73.60
12839;DHT22;6486;51.034;5.262;2023-02-13T12:21:43;12.90;73.40
12839;DHT22;6486;51.034;5.262;2023-02-13T12:26:47;13.00;73.00
12839;DHT22;6486;51.034;5.262;2023-02-13T12:29:51;13.00;72.70
12839;DHT22;6486;51.034;5.262;2023-02-13T12:32:25;13.10;72.70
12839;DHT22;6486;51.034;5.262;2023-02-13T12:46:39;13.30;71.60
12839;DHT22;6486;51.034;5.262;2023-02-13T12:50:12;13.30;71.50
12839;DHT22;6486;51.034;5.262;2023-02-13T13:03:51;13.60;70.70
12839;DHT22;6486;51.034;5.262;2023-02-13T13:09:55;13.70;70.30
12839;DHT22;6486;51.034;5.262;2023-02-13T13:13:40;13.80;70.10
12839;DHT22;6486;51.034;5.262;2023-02-13T13:15:48;13.80;69.50
12839;DHT22;6486;51.034;5.262;2023-02-13T13:18:31;13.80;69.20
12839;DHT22;6486;51.034;5.262;2023-02-13T13:21:24;13.80;69.20
12839;DHT22;6486;51.034;5.262;2023-02-13T13:28:48;13.80;68.90
12839;DHT22;6486;51.034;5.262;2023-02-13T13:31:15;13.80;68.70
12839;DHT22;6486;51.034;5.262;2023-02-13T13:33:45;13.80;68.20
12839;DHT22;6486;51.034;5.262;2023-02-13T13:36:35;13.90;68.40
12839;DHT22;6486;51.034;5.262;2023-02-13T13:39:16;13.90;68.00
12839;DHT22;6486;51.034;5.262;2023-02-13T13:47:31;14.00;67.50
12839;DHT22;6486;51.034;5.262;2023-02-13T13:50:03;14.00;67.40
12839;DHT22;6486;51.034;5.262;2023-02-13T13:54:59;14.10;66.90
12839;DHT22;6486;51.034;5.262;2023-02-13T14:00:29;14.20;66.50
12839;DHT22;6486;51.034;5.262;2023-02-13T14:05:30;14.20;66.40
12839;DHT22;6486;51.034;5.262;2023-02-13T14:08:01;14.30;66.60
12839;DHT22;6486;51.034;5.262;2023-02-13T14:23:43;14.70;65.80
12839;DHT22;6486;51.034;5.262;2023-02-13T14:31:35;14.70;65.70
12839;DHT22;6486;51.034;5.262;2023-02-13T14:36:41;14.90;66.10
12839;DHT22;6486;51.034;5.262;2023-02-13T14:39:31;15.00;65.50
12839;DHT22;6486;51.034;5.262;2023-02-13T14:42:00;15.10;65.00
12839;DHT22;6486;51.034;5.262;2023-02-13T14:47:00;15.20;64.60
12839;DHT22;6486;51.034;5.262;2023-02-13T14:49:30;15.30;64.60
12839;DHT22;6486;51.034;5.262;2023-02-13T14:52:02;15.30;64.30
12839;DHT22;6486;51.034;5.262;2023-02-13T14:54:37;15.50;64.70
12839;DHT22;6486;51.034;5.262;2023-02-13T14:57:16;15.80;65.20
12839;DHT22;6486;51.034;5.262;2023-02-13T14:59:51;16.30;65.40
12839;DHT22;6486;51.034;5.262;2023-02-13T15:02:26;16.80;64.80
12839;DHT22;6486;51.034;5.262;2023-02-13T15:07:28;17.70;63.50
12839;DHT22;6486;51.034;5.262;2023-02-13T15:09:59;18.10;62.90
12839;DHT22;6486;51.034;5.262;2023-02-13T15:12:35;18.60;62.10
12839;DHT22;6486;51.034;5.262;2023-02-13T15:15:20;19.40;61.10
12839;DHT22;6486;51.034;5.262;2023-02-13T15:17:46;20.10;59.60
12839;DHT22;6486;51.034;5.262;2023-02-13T15:22:47;19.80;58.10
12839;DHT22;6486;51.034;5.262;2023-02-13T15:25:36;19.30;57.60
12839;DHT22;6486;51.034;5.262;2023-02-13T15:28:04;18.70;57.30
12839;DHT22;6486;51.034;5.262;2023-02-13T15:30:32;18.10;57.30
12839;DHT22;6486;51.034;5.262;2023-02-13T15:33:15;17.50;57.60
12839;DHT22;6486;51.034;5.262;2023-02-13T15:35:41;17.00;57.70
12839;DHT22;6486;51.034;5.262;2023-02-13T15:38:29;16.60;58.00
12839;DHT22;6486;51.034;5.262;2023-02-13T15:41:13;16.20;58.10
12839;DHT22;6486;51.034;5.262;2023-02-13T15:43:43;15.90;58.40
12839;DHT22;6486;51.034;5.262;2023-02-13T15:46:28;15.60;58.60
12839;DHT22;6486;51.034;5.262;2023-02-13T15:49:14;15.30;58.70
12839;DHT22;6486;51.034;5.262;2023-02-13T15:51:41;15.00;58.90
12839;DHT22;6486;51.034;5.262;2023-02-13T15:54:27;14.80;59.20
12839;DHT22;6486;51.034;5.262;2023-02-13T15:56:56;14.60;59.10
12839;DHT22;6486;51.034;5.262;2023-02-13T15:59:25;14.40;59.40
12839;DHT22;6486;51.034;5.262;2023-02-13T16:01:53;14.30;59.40
12839;DHT22;6486;51.034;5.262;2023-02-13T16:04:19;14.20;59.60
12839;DHT22;6486;51.034;5.262;2023-02-13T16:06:46;14.00;59.70
12839;DHT22;6486;51.034;5.262;2023-02-13T16:09:24;13.90;59.80
12839;DHT22;6486;51.034;5.262;2023-02-13T16:11:54;13.80;59.80
12839;DHT22;6486;51.034;5.262;2023-02-13T16:14:24;13.70;59.90
12839;DHT22;6486;51.034;5.262;2023-02-13T16:16:58;13.60;60.00
12839;DHT22;6486;51.034;5.262;2023-02-13T16:19:33;13.50;60.20
12839;DHT22;6486;51.034;5.262;2023-02-13T16:22:24;13.40;60.50
12839;DHT22;6486;51.034;5.262;2023-02-13T16:24:53;13.30;60.70
12839;DHT22;6486;51.034;5.262;2023-02-13T16:27:23;13.20;60.70
12839;DHT22;6486;51.034;5.262;2023-02-13T16:29:57;13.10;60.80
12839;DHT22;6486;51.034;5.262;2023-02-13T16:32:28;13.00;61.00
12839;DHT22;6486;51.034;5.262;2023-02-13T16:34:55;13.00;61.20
12839;DHT22;6486;51.034;5.262;2023-02-13T16:37:32;12.90;61.40
12839;DHT22;6486;51.034;5.262;2023-02-13T16:54:00;12.40;62.60
12839;DHT22;6486;51.034;5.262;2023-02-13T16:56:26;12.30;62.80
12839;DHT22;6486;51.034;5.262;2023-02-13T17:01:36;12.20;63.30
12839;DHT22;6486;51.034;5.262;2023-02-13T17:04:23;12.10;63.30
12839;DHT22;6486;51.034;5.262;2023-02-13T17:06:55;12.10;63.50
12839;DHT22;6486;51.034;5.262;2023-02-13T17:09:21;12.00;63.60
12839;DHT22;6486;51.034;5.262;2023-02-13T17:11:50;11.90;63.70
12839;DHT22;6486;51.034;5.262;2023-02-13T17:14:16;11.90;63.90
12839;DHT22;6486;51.034;5.262;2023-02-13T17:16:42;11.80;64.00
12839;DHT22;6486;51.034;5.262;2023-02-13T17:19:08;11.80;64.10
12839;DHT22;6486;51.034;5.262;2023-02-13T17:21:33;11.80;64.30
12839;DHT22;6486;51.034;5.262;2023-02-13T17:24:01;11.70;64.30
12839;DHT22;6486;51.034;5.262;2023-02-13T17:26:27;11.60;64.50
12839;DHT22;6486;51.034;5.262;2023-02-13T17:28:52;11.60;64.70
12839;DHT22;6486;51.034;5.262;2023-02-13T17:31:18;11.50;64.80
12839;DHT22;6486;51.034;5.262;2023-02-13T17:33:43;11.50;64.90
12839;DHT22;6486;51.034;5.262;2023-02-13T17:36:11;11.50;65.00
12839;DHT22;6486;51.034;5.262;2023-02-13T17:38:37;11.40;65.20
12839;DHT22;6486;51.034;5.262;2023-02-13T17:41:04;11.30;65.20
12839;DHT22;6486;51.034;5.262;2023-02-13T17:43:30;11.30;65.40
12839;DHT22;6486;51.034;5.262;2023-02-13T17:45:56;11.20;65.40
12839;DHT22;6486;51.034;5.262;2023-02-13T17:48:21;11.20;65.60
12839;DHT22;6486;51.034;5.262;2023-02-13T17:50:49;11.20;65.70
12839;DHT22;6486;51.034;5.262;2023-02-13T17:53:22;11.10;65.70
12839;DHT22;6486;51.034;5.262;2023-02-13T17:55:49;11.10;65.90
12839;DHT22;6486;51.034;5.262;2023-02-13T17:58:14;11.00;65.90
12839;DHT22;6486;51.034;5.262;2023-02-13T18:00:40;11.00;66.70
12839;DHT22;6486;51.034;5.262;2023-02-13T18:03:05;10.90;66.10
12839;DHT22;6486;51.034;5.262;2023-02-13T18:05:31;10.90;66.20
12839;DHT22;6486;51.034;5.262;2023-02-13T18:07:58;10.90;66.30
12839;DHT22;6486;51.034;5.262;2023-02-13T18:10:29;10.80;66.40
12839;DHT22;6486;51.034;5.262;2023-02-13T18:12:56;10.80;66.50
12839;DHT22;6486;51.034;5.262;2023-02-13T18:15:29;10.70;66.50
12839;DHT22;6486;51.034;5.262;2023-02-13T18:17:54;10.60;66.50
12839;DHT22;6486;51.034;5.262;2023-02-13T18:20:20;10.50;66.60
12839;DHT22;6486;51.034;5.262;2023-02-13T18:22:46;10.50;66.70
12839;DHT22;6486;51.034;5.262;2023-02-13T18:25:15;10.40;66.70
12839;DHT22;6486;51.034;5.262;2023-02-13T18:27:41;10.40;67.60
12839;DHT22;6486;51.034;5.262;2023-02-13T18:30:07;10.30;67.00
12839;DHT22;6486;51.034;5.262;2023-02-13T18:32:34;10.30;67.10
12839;DHT22;6486;51.034;5.262;2023-02-13T18:34:59;10.20;67.20
12839;DHT22;6486;51.034;5.262;2023-02-13T18:37:25;10.10;67.20
12839;DHT22;6486;51.034;5.262;2023-02-13T18:39:53;10.10;67.30
12839;DHT22;6486;51.034;5.262;2023-02-13T18:42:19;10.00;67.50
12839;DHT22;6486;51.034;5.262;2023-02-13T18:44:45;10.00;67.60
12839;DHT22;6486;51.034;5.262;2023-02-13T18:47:10;9.90;68.90
12839;DHT22;6486;51.034;5.262;2023-02-13T18:49:36;9.80;68.90
12839;DHT22;6486;51.034;5.262;2023-02-13T18:52:02;9.80;69.10
12839;DHT22;6486;51.034;5.262;2023-02-13T18:54:27;9.70;69.10
12839;DHT22;6486;51.034;5.262;2023-02-13T18:56:53;9.70;69.10
12839;DHT22;6486;51.034;5.262;2023-02-13T18:59:18;9.60;69.00
12839;DHT22;6486;51.034;5.262;2023-02-13T19:01:44;9.60;69.20
12839;DHT22;6486;51.034;5.262;2023-02-13T19:04:11;9.60;69.20
12839;DHT22;6486;51.034;5.262;2023-02-13T19:06:41;9.50;69.30
12839;DHT22;6486;51.034;5.262;2023-02-13T19:09:07;9.50;69.30
12839;DHT22;6486;51.034;5.262;2023-02-13T19:11:32;9.40;69.30
12839;DHT22;6486;51.034;5.262;2023-02-13T19:13:59;9.40;69.50
12839;DHT22;6486;51.034;5.262;2023-02-13T19:16:26;9.30;69.60
12839;DHT22;6486;51.034;5.262;2023-02-13T19:18:55;9.30;69.70